Terminal Aerodrome Forecast
Issued by NWS

Current Version | Previous Version | Text Only | Print | Product List | Glossary On
Versions: 1 2 3 4 5 6 7 8 9 10 11 12 13 14 15 16 17 18
000 FTUS41 KGYX 242320 TAFMHT TAF KMHT 242320Z 2500/2524 19011KT P6SM BKN250 FM250900 15004KT P6SM OVC025 FM251200 15006KT 5SM -RA OVC025 FM251600 11009KT 1 1/2SM RA OVC007 FM251900 10013KT 1 1/2SM RA OVC003=

USA.gov is the U.S. government's official web portal to all federal, state and local government web resources and services.